Yushun — JD3877 — position and weather

sailwx.info

Track history (hours):
 
Tides and Currents Weather Stations Pressure Air Temp Water Temp Dewpoint Dewpoint Depression Visibility Wind Speed Wind Dir Waves Ship Positions

Yushun

Last reported at 2017-Dec-16 07:00 UTC. Time now 2017-Dec-16 07:19 UTC.
Position N 35°32' E 140°06'.

Length 63 m; draft 4 m.

Type: Tanker. MMSI: 431006555.

Date/timePositionNaut miles runAvg speedWind from/ knotsBaromVisibWave heightAir tempDewpointWater temp
2017-Dec-16 07:00N 35°32' E 140°06'0 0.0
2017-Dec-16 06:30N 35°32' E 140°06'0 0.0
2017-Dec-16 06:00N 35°32' E 140°06'0 0.0
2017-Dec-16 05:30N 35°32' E 140°06'0 0.0
2017-Dec-16 05:00N 35°32' E 140°06'2 4.8
2017-Dec-16 04:30N 35°33' E 140°03'0 0.0
2017-Dec-16 04:00N 35°33' E 140°03'1 1.8
2017-Dec-16 03:30N 35°33' E 140°02'5 9.6
2017-Dec-16 03:00N 35°32' E 139°56'5 9.4
2017-Dec-16 02:30N 35°31' E 139°50'4 7.1
2017-Dec-16 02:00N 35°31' E 139°46'0 0.0
2017-Dec-16 01:30N 35°31' E 139°46'0 0.0
2017-Dec-16 01:00N 35°31' E 139°46'0 0.0
2017-Dec-16 00:29N 35°31' E 139°46'0 0.0
2017-Dec-16 00:00N 35°31' E 139°46'0 0.0
2017-Dec-15 23:30N 35°31' E 139°46'0 0.0
2017-Dec-15 23:00N 35°31' E 139°46'2 3.5
2017-Dec-15 22:30N 35°29' E 139°47'1 1.8
2017-Dec-15 22:00N 35°29' E 139°46'0 0.0
2017-Dec-15 21:30N 35°29' E 139°46'0 0.0
2017-Dec-15 21:00N 35°29' E 139°46'0 0.0
2017-Dec-15 20:30N 35°29' E 139°46'0 0.0
2017-Dec-15 20:00N 35°29' E 139°46'0 0.0
2017-Dec-15 19:30N 35°29' E 139°46'0 0.0
2017-Dec-15 19:00N 35°29' E 139°46'0 0.0
2017-Dec-15 18:30N 35°29' E 139°46'0 0.0
2017-Dec-15 18:00N 35°29' E 139°46'0 0.0
2017-Dec-15 17:30N 35°29' E 139°46'0 0.1
2017-Dec-15 17:00N 35°29' E 139°46'0 0.0
2017-Dec-15 16:30N 35°29' E 139°46'0 0.0
2017-Dec-15 16:00N 35°29' E 139°46'0 0.0
2017-Dec-15 15:30N 35°29' E 139°46'0 0.0
2017-Dec-15 15:00N 35°29' E 139°46'0 0.0
2017-Dec-15 14:30N 35°29' E 139°46'0 0.0
2017-Dec-15 14:00N 35°29' E 139°46'0 0.0
2017-Dec-15 13:30N 35°29' E 139°46'0 0.1
2017-Dec-15 13:00N 35°29' E 139°46'0 0.0
2017-Dec-15 12:30N 35°29' E 139°46'0 0.0
2017-Dec-15 12:00N 35°29' E 139°46'0 0.0
2017-Dec-15 11:30N 35°29' E 139°46'0 0.0
2017-Dec-15 11:00N 35°29' E 139°46'0 0.0
2017-Dec-15 10:30N 35°29' E 139°46'0 0.0
2017-Dec-15 10:00N 35°29' E 139°46'0 0.0
2017-Dec-15 09:30N 35°29' E 139°46'0 0.0
2017-Dec-15 09:00N 35°29' E 139°46'0 0.0
2017-Dec-15 08:30N 35°29' E 139°46'0 0.1
2017-Dec-15 08:00N 35°29' E 139°46'0 0.1
2017-Dec-15 07:30N 35°29' E 139°46'0 0.0
2017-Dec-15 07:00N 35°29' E 139°46'0 0.0
2017-Dec-15 06:30N 35°29' E 139°46'510.5
2017-Dec-15 06:00N 35°24' E 139°46'611.4
2017-Dec-15 05:31N 35°18' E 139°45'611.4
2017-Dec-15 05:00N 35°13' E 139°47'611.7
2017-Dec-15 04:30N 35°07' E 139°45'611.5
2017-Dec-15 03:59N 35°02' E 139°40'1912.4
2017-Dec-15 02:27N 34°51' E 139°21'1812.2
2017-Dec-15 01:00N 34°40' E 139°05'711.6
2017-Dec-15 00:24N 34°36' E 138°58'7712.1
2017-Dec-14 18:04N 34°31' E 137°24'112.0
2017-Dec-14 17:59N 34°31' E 137°23'611.9
2017-Dec-14 17:30N 34°31' E 137°16'116 9.5
2017-Dec-14 05:18N 33°50' E 135°05'412.3
2017-Dec-14 04:57N 33°54' E 135°02'612.6
2017-Dec-14 04:30N 33°59' E 135°01'612.7
2017-Dec-14 04:00N 34°06' E 135°02'612.8
2017-Dec-14 03:30N 34°12' E 135°03'713.5
2017-Dec-14 03:00N 34°19' E 135°04'612.8
2017-Dec-14 02:30N 34°24' E 135°09'612.5
2017-Dec-14 02:00N 34°28' E 135°14'612.3
2017-Dec-14 01:30N 34°33' E 135°19'612.0
2017-Dec-14 01:00N 34°38' E 135°23'4 7.3
2017-Dec-14 00:30N 34°38' E 135°28'0 0.0
2017-Dec-14 00:00N 34°38' E 135°28'0 0.0
2017-Dec-13 23:30N 34°38' E 135°28'0 0.0
2017-Dec-13 23:00N 34°38' E 135°28'0 0.0
2017-Dec-13 22:30N 34°38' E 135°28'0 0.1
2017-Dec-13 22:00N 34°38' E 135°27'2 4.4
2017-Dec-13 21:30N 34°40' E 135°27'0 0.1
2017-Dec-13 21:00N 34°40' E 135°27'0 0.0
2017-Dec-13 20:30N 34°40' E 135°27'0 0.0
2017-Dec-13 20:00N 34°40' E 135°27'0 0.0
2017-Dec-13 19:30N 34°40' E 135°27'0 0.0
2017-Dec-13 19:00N 34°40' E 135°27'0 0.0
2017-Dec-13 18:30N 34°40' E 135°27'0 0.0
2017-Dec-13 18:00N 34°40' E 135°27'0 0.0
2017-Dec-13 17:30N 34°40' E 135°27'0 0.0
2017-Dec-13 17:00N 34°40' E 135°27'0 0.0
2017-Dec-13 16:30N 34°40' E 135°27'0 0.0
2017-Dec-13 16:00N 34°40' E 135°27'0 0.0
2017-Dec-13 15:30N 34°40' E 135°27'0 0.0
2017-Dec-13 15:00N 34°40' E 135°27'0 0.0
2017-Dec-13 14:30N 34°40' E 135°27'0 0.0
2017-Dec-13 14:00N 34°40' E 135°27'0 0.0
2017-Dec-13 13:30N 34°40' E 135°27'0 0.0
2017-Dec-13 13:00N 34°40' E 135°27'0 0.0
2017-Dec-13 12:30N 34°40' E 135°27'0 0.0
2017-Dec-13 12:00N 34°40' E 135°27'0 0.0
2017-Dec-13 11:30N 34°40' E 135°27'0 0.0
2017-Dec-13 11:00N 34°40' E 135°27'0 0.0
2017-Dec-13 10:30N 34°40' E 135°27'0 0.0
2017-Dec-13 10:00N 34°40' E 135°27'0 0.0
2017-Dec-13 09:30N 34°40' E 135°27'0 0.0
2017-Dec-13 09:00N 34°40' E 135°27'0 0.0
2017-Dec-13 08:30N 34°40' E 135°27'0 0.0
2017-Dec-13 08:00N 34°40' E 135°27'0 0.0
2017-Dec-13 07:30N 34°40' E 135°27'0 0.0
2017-Dec-13 07:00N 34°40' E 135°27'0 0.0
2017-Dec-13 06:30N 34°40' E 135°27'0 0.0
2017-Dec-13 06:00N 34°40' E 135°27'0 0.0
2017-Dec-13 05:30N 34°40' E 135°27'0 0.0
2017-Dec-13 05:00N 34°40' E 135°27'0 0.0
2017-Dec-13 04:30N 34°40' E 135°27'0 0.0
2017-Dec-13 04:00N 34°40' E 135°27'0 0.0
2017-Dec-13 03:30N 34°40' E 135°27'0 0.0
2017-Dec-13 03:00N 34°40' E 135°27'3 5.7
2017-Dec-13 02:30N 34°38' E 135°24'612.0
2017-Dec-13 02:00N 34°36' E 135°17'612.5
2017-Dec-13 01:30N 34°35' E 135°10'612.5
2017-Dec-13 01:00N 34°36' E 135°03'612.3
2017-Dec-13 00:30N 34°35' E 134°55'612.3
2017-Dec-13 00:00N 34°33' E 134°48'611.9
2017-Dec-12 23:30N 34°30' E 134°42'611.9
2017-Dec-12 23:00N 34°28' E 134°35'9510.8
2017-Dec-12 14:11N 34°04' E 132°43'211.6
2017-Dec-12 14:00N 34°03' E 132°41'611.3
2017-Dec-12 13:30N 33°60' E 132°35'710.7
2017-Dec-12 12:52N 33°55' E 132°29'811.0
2017-Dec-12 12:09N 33°50' E 132°22'211.2
2017-Dec-12 12:00N 33°50' E 132°20'611.6
2017-Dec-12 11:26N 33°50' E 132°12'711.4
2017-Dec-12 10:50N 33°46' E 132°05'811.6
2017-Dec-12 10:10N 33°45' E 131°56'212.1
2017-Dec-12 09:59N 33°45' E 131°53'612.2
2017-Dec-12 09:29N 33°47' E 131°46'612.3
2017-Dec-12 09:00N 33°48' E 131°39'612.0
2017-Dec-12 08:31N 33°49' E 131°32'611.9
2017-Dec-12 08:00N 33°51' E 131°25'611.8
2017-Dec-12 07:30N 33°52' E 131°18'611.4
2017-Dec-12 07:00N 33°53' E 131°11'611.7
2017-Dec-12 06:30N 33°56' E 131°05'510.9
2017-Dec-12 06:01N 33°58' E 130°59'510.8
2017-Dec-12 05:30N 33°54' E 130°55'2 4.4
2017-Dec-12 05:00N 33°56' E 130°54'0 0.0
2017-Dec-12 04:30N 33°56' E 130°54'0 0.0
2017-Dec-12 04:00N 33°56' E 130°54'0 0.0
2017-Dec-12 03:30N 33°56' E 130°54'0 0.0
2017-Dec-12 03:00N 33°56' E 130°54'0 0.0
2017-Dec-12 02:30N 33°56' E 130°54'0 0.0
2017-Dec-12 02:00N 33°56' E 130°54'0 0.0
2017-Dec-12 01:30N 33°56' E 130°54'0 0.0
2017-Dec-12 01:00N 33°56' E 130°54'0 0.0
2017-Dec-12 00:30N 33°56' E 130°54'0 0.0
2017-Dec-12 00:00N 33°56' E 130°54'0 0.0
2017-Dec-11 23:30N 33°56' E 130°54'1 2.3
2017-Dec-11 23:00N 33°55' E 130°54'3 4.9
2017-Dec-11 22:28N 33°57' E 130°56'0 0.0
2017-Dec-11 21:58N 33°57' E 130°56'0 0.0
2017-Dec-11 21:28N 33°57' E 130°56'0 0.0
2017-Dec-11 20:58N 33°57' E 130°56'0 0.0
2017-Dec-11 20:28N 33°57' E 130°56'0 0.0
2017-Dec-11 19:58N 33°57' E 130°56'0 0.0
2017-Dec-11 19:28N 33°57' E 130°56'0 0.0
2017-Dec-11 18:58N 33°57' E 130°56'0 0.0
2017-Dec-11 18:28N 33°57' E 130°56'0 0.0
2017-Dec-11 17:58N 33°57' E 130°56'0 0.0
2017-Dec-11 17:28N 33°57' E 130°56'0 0.0
2017-Dec-11 16:58N 33°57' E 130°56'0 0.0
2017-Dec-11 16:28N 33°57' E 130°56'0 0.0
2017-Dec-11 15:58N 33°57' E 130°56'0 0.0
2017-Dec-11 15:28N 33°57' E 130°56'0 0.0
2017-Dec-11 14:58N 33°57' E 130°56'0 0.0
2017-Dec-11 14:28N 33°57' E 130°56'0 0.0
2017-Dec-11 13:58N 33°57' E 130°56'0 0.0
2017-Dec-11 13:25N 33°57' E 130°56'0 0.0
2017-Dec-11 12:58N 33°57' E 130°56'0 0.0
2017-Dec-11 12:28N 33°57' E 130°56'0 0.0
2017-Dec-11 11:58N 33°57' E 130°56'0 0.0
2017-Dec-11 11:28N 33°57' E 130°56'0 0.0
2017-Dec-11 10:55N 33°57' E 130°56'0 0.0
2017-Dec-11 10:28N 33°57' E 130°56'0 0.0
2017-Dec-11 09:58N 33°57' E 130°56'0 0.0
2017-Dec-11 09:28N 33°57' E 130°56'0 0.0
2017-Dec-11 08:58N 33°57' E 130°56'0 0.0
2017-Dec-11 08:28N 33°57' E 130°56'0 0.0
2017-Dec-11 07:58N 33°57' E 130°56'0 0.0
2017-Dec-11 07:28N 33°57' E 130°56'0 0.0
2017-Dec-11 06:52N 33°57' E 130°56'0 0.0
2017-Dec-11 06:28N 33°57' E 130°56'0 0.0
2017-Dec-11 05:58N 33°57' E 130°56'0 0.0
2017-Dec-11 05:28N 33°57' E 130°56'0 0.0
2017-Dec-11 04:58N 33°57' E 130°56'0 0.0
2017-Dec-11 04:28N 33°57' E 130°56'0 0.0
2017-Dec-11 03:58N 33°57' E 130°56'0 0.0
2017-Dec-11 03:28N 33°57' E 130°56'0 0.0
2017-Dec-11 02:58N 33°57' E 130°56'0 0.0
2017-Dec-11 02:28N 33°57' E 130°56'0 0.0
2017-Dec-11 01:58N 33°57' E 130°56'0 0.0
2017-Dec-11 01:28N 33°57' E 130°56'0 0.0
2017-Dec-11 00:58N 33°57' E 130°56'0 0.0
2017-Dec-11 00:28N 33°57' E 130°56'0 0.0
2017-Dec-10 23:58N 33°57' E 130°56'0 0.0
2017-Dec-10 23:28N 33°57' E 130°56'0 0.0
2017-Dec-10 22:58N 33°57' E 130°56'0 0.0
2017-Dec-10 22:28N 33°57' E 130°56'0 0.0
2017-Dec-10 21:58N 33°57' E 130°56'0 0.0
2017-Dec-10 21:28N 33°57' E 130°56'0 0.0
2017-Dec-10 20:58N 33°57' E 130°56'0 0.0
2017-Dec-10 20:28N 33°57' E 130°56'0 0.0
2017-Dec-10 19:58N 33°57' E 130°56'0 0.0
2017-Dec-10 19:28N 33°57' E 130°56'0 0.0
2017-Dec-10 18:58N 33°57' E 130°56'0 0.0
2017-Dec-10 18:28N 33°57' E 130°56'0 0.0
2017-Dec-10 17:58N 33°57' E 130°56'0 0.0
2017-Dec-10 17:28N 33°57' E 130°56'0 0.0
2017-Dec-10 16:58N 33°57' E 130°56'0 0.0
2017-Dec-10 16:28N 33°57' E 130°56'0 0.0
2017-Dec-10 15:58N 33°57' E 130°56'0 0.0
2017-Dec-10 15:28N 33°57' E 130°56'0 0.0
2017-Dec-10 14:58N 33°57' E 130°56'0 0.0
2017-Dec-10 14:28N 33°57' E 130°56'0 0.0
2017-Dec-10 14:01N 33°57' E 130°56'0 0.0
2017-Dec-10 13:31N 33°57' E 130°56'0 0.0
2017-Dec-10 12:58N 33°57' E 130°56'0 0.0
2017-Dec-10 12:31N 33°57' E 130°56'0 0.0
2017-Dec-10 12:01N 33°57' E 130°56'0 0.0
2017-Dec-10 11:28N 33°57' E 130°56'0 0.0
2017-Dec-10 11:01N 33°57' E 130°56'0 0.0
2017-Dec-10 10:28N 33°57' E 130°56'0 0.0
2017-Dec-10 09:55N 33°57' E 130°56'0 0.0
2017-Dec-10 09:31N 33°57' E 130°56'0 0.0
2017-Dec-10 08:58N 33°57' E 130°56'0 0.0
2017-Dec-10 08:31N 33°57' E 130°56'0 0.0
2017-Dec-10 08:00N 33°57' E 130°56'0 0.0
2017-Dec-10 07:31N 33°57' E 130°56'0 0.0
2017-Dec-10 06:57N 33°57' E 130°56'0 0.0
2017-Dec-10 06:31N 33°57' E 130°56'0 0.0
2017-Dec-10 06:01N 33°57' E 130°56'0 0.0
2017-Dec-10 05:27N 33°57' E 130°56'0 0.0
2017-Dec-10 05:00N 33°57' E 130°56'0 0.0
2017-Dec-10 04:28N 33°57' E 130°56'0 0.0
2017-Dec-10 04:00N 33°57' E 130°56'0 0.0
2017-Dec-10 03:27N 33°57' E 130°56'0 0.0
2017-Dec-10 02:57N 33°57' E 130°56'0 0.0
2017-Dec-10 02:27N 33°57' E 130°56'0 0.0
2017-Dec-10 02:01N 33°57' E 130°56'0 0.0
2017-Dec-10 01:30N 33°57' E 130°56'2 3.1
2017-Dec-10 01:00N 33°58' E 130°58'3 5.1
2017-Dec-10 00:30N 33°59' E 131°00'3 6.3
2017-Dec-10 00:00N 33°58' E 131°04'0 0.0
2017-Dec-09 23:30N 33°58' E 131°04'0 0.3
2017-Dec-09 23:00N 33°58' E 131°04'510.7
2017-Dec-09 22:30N 33°54' E 131°09'611.5
2017-Dec-09 22:00N 33°52' E 131°16'611.6
2017-Dec-09 21:30N 33°51' E 131°22'611.7
2017-Dec-09 21:00N 33°50' E 131°29'611.8
2017-Dec-09 20:30N 33°49' E 131°36'611.7
2017-Dec-09 19:59N 33°48' E 131°43'911.6
2017-Dec-09 19:13N 33°46' E 131°54'611.5
2017-Dec-09 18:44N 33°46' E 132°01'311.5
2017-Dec-09 18:30N 33°46' E 132°04'712.0
2017-Dec-09 17:57N 33°50' E 132°11'511.8
2017-Dec-09 17:30N 33°50' E 132°17'911.0
2017-Dec-09 16:41N 33°53' E 132°27'910.7
2017-Dec-09 15:50N 33°60' E 132°35'411.1
2017-Dec-09 15:29N 34°02' E 132°39'10610.2
2017-Dec-09 05:01N 34°11' E 134°47'013.5
2017-Dec-09 05:00N 34°11' E 134°47'611.6
2017-Dec-09 04:30N 34°12' E 134°54'510.4
2017-Dec-09 04:00N 34°13' E 134°60'611.2
2017-Dec-09 03:30N 34°13' E 135°07'2 3.2
2017-Dec-09 03:00N 34°13' E 135°09'0 0.0
2017-Dec-09 02:30N 34°13' E 135°09'0 0.0
2017-Dec-09 02:01N 34°13' E 135°09'0 0.0
2017-Dec-09 01:30N 34°13' E 135°09'0 0.0
2017-Dec-09 01:01N 34°13' E 135°09'0 0.0
2017-Dec-09 00:30N 34°13' E 135°09'0 0.0
2017-Dec-09 00:00N 34°13' E 135°09'0 0.0
2017-Dec-08 23:30N 34°13' E 135°09'0 0.0
2017-Dec-08 23:00N 34°13' E 135°09'1 2.6
2017-Dec-08 22:31N 34°12' E 135°07'0 0.0
2017-Dec-08 22:00N 34°12' E 135°07'0 0.1
2017-Dec-08 21:27N 34°12' E 135°07'0 0.0
2017-Dec-08 21:00N 34°12' E 135°07'0 0.0
2017-Dec-08 20:30N 34°12' E 135°07'3 6.0
2017-Dec-08 20:00N 34°12' E 135°04'611.5
2017-Dec-08 19:30N 34°12' E 134°57'611.4
2017-Dec-08 19:00N 34°11' E 134°50'611.7
2017-Dec-08 18:30N 34°11' E 134°43'713.3
2017-Dec-08 18:00N 34°16' E 134°38'612.0
2017-Dec-08 17:30N 34°18' E 134°31'612.3
2017-Dec-08 17:00N 34°20' E 134°24'85 9.8
2017-Dec-08 08:20N 34°04' E 132°44'411.0
2017-Dec-08 08:00N 34°02' E 132°40'810.4
2017-Dec-08 07:13N 33°57' E 132°32'310.2
2017-Dec-08 06:55N 33°55' E 132°29'710.9
2017-Dec-08 06:15N 33°50' E 132°23'311.3
2017-Dec-08 05:57N 33°50' E 132°19'1211.5
2017-Dec-08 04:52N 33°46' E 132°04'1711.3
2017-Dec-08 03:22N 33°56' E 131°48'411.6
2017-Dec-08 03:00N 33°59' E 131°45'4 1.8
2017-Dec-08 00:40N 34°03' E 131°46'1 6.2
2017-Dec-08 00:30N 34°03' E 131°45'1 2.4
2017-Dec-08 00:00N 34°03' E 131°44'0 0.0
2017-Dec-07 23:30N 34°03' E 131°44'3 6.0
2017-Dec-07 23:00N 34°03' E 131°47'0 0.0
2017-Dec-07 07:52N 34°03' E 131°48'1 2.4
2017-Dec-07 07:28N 34°02' E 131°47'510.3
2017-Dec-07 07:00N 33°57' E 131°46'1611.7
2017-Dec-07 05:39N 33°52' E 132°04'211.8
2017-Dec-07 05:29N 33°51' E 132°06'4 5.2
2017-Dec-07 04:48N 33°54' E 132°09'510.9
2017-Dec-07 04:19N 33°58' E 132°12'412.9
2017-Dec-07 03:59N 34°01' E 132°16'1312.3
2017-Dec-07 02:54N 34°08' E 132°29'4 9.4
2017-Dec-07 02:30N 34°12' E 132°29'0 0.1
2017-Dec-07 01:59N 34°12' E 132°29'0 0.0
2017-Dec-07 01:28N 34°12' E 132°29'0 0.0
2017-Dec-07 01:00N 34°12' E 132°29'0 0.0
2017-Dec-07 00:30N 34°12' E 132°29'0 0.3
2017-Dec-07 00:00N 34°12' E 132°29'0 0.3
2017-Dec-06 23:30N 34°12' E 132°29'2 4.8
2017-Dec-06 23:00N 34°09' E 132°30'4 8.6
2017-Dec-06 22:29N 34°07' E 132°25'510.1
2017-Dec-06 21:59N 34°03' E 132°20'  
Track history (hours):
 
Tides and Currents Weather Stations Pressure Air Temp Water Temp Dewpoint Dewpoint Depression Visibility Wind Speed Wind Dir Waves Ship Positions

Yushun

Last reported at 2017-Dec-16 07:00 UTC. Time now 2017-Dec-16 07:19 UTC.
Position N 35°32' E 140°06'.

Length 63 m; draft 4 m.

Type: Tanker. MMSI: 431006555.

Date/timePositionNaut miles runAvg speedWind from/ knotsBaromVisibWave heightAir tempDewpointWater temp
2017-Dec-16 07:00N 35°32' E 140°06'0 0.0
2017-Dec-16 06:30N 35°32' E 140°06'0 0.0
2017-Dec-16 06:00N 35°32' E 140°06'0 0.0
2017-Dec-16 05:30N 35°32' E 140°06'0 0.0
2017-Dec-16 05:00N 35°32' E 140°06'2 4.8
2017-Dec-16 04:30N 35°33' E 140°03'0 0.0
2017-Dec-16 04:00N 35°33' E 140°03'1 1.8
2017-Dec-16 03:30N 35°33' E 140°02'5 9.6
2017-Dec-16 03:00N 35°32' E 139°56'5 9.4
2017-Dec-16 02:30N 35°31' E 139°50'4 7.1
2017-Dec-16 02:00N 35°31' E 139°46'0 0.0
2017-Dec-16 01:30N 35°31' E 139°46'0 0.0
2017-Dec-16 01:00N 35°31' E 139°46'0 0.0
2017-Dec-16 00:29N 35°31' E 139°46'0 0.0
2017-Dec-16 00:00N 35°31' E 139°46'0 0.0
2017-Dec-15 23:30N 35°31' E 139°46'0 0.0
2017-Dec-15 23:00N 35°31' E 139°46'2 3.5
2017-Dec-15 22:30N 35°29' E 139°47'1 1.8
2017-Dec-15 22:00N 35°29' E 139°46'0 0.0
2017-Dec-15 21:30N 35°29' E 139°46'0 0.0
2017-Dec-15 21:00N 35°29' E 139°46'0 0.0
2017-Dec-15 20:30N 35°29' E 139°46'0 0.0
2017-Dec-15 20:00N 35°29' E 139°46'0 0.0
2017-Dec-15 19:30N 35°29' E 139°46'0 0.0
2017-Dec-15 19:00N 35°29' E 139°46'0 0.0
2017-Dec-15 18:30N 35°29' E 139°46'0 0.0
2017-Dec-15 18:00N 35°29' E 139°46'0 0.0
2017-Dec-15 17:30N 35°29' E 139°46'0 0.1
2017-Dec-15 17:00N 35°29' E 139°46'0 0.0
2017-Dec-15 16:30N 35°29' E 139°46'0 0.0
2017-Dec-15 16:00N 35°29' E 139°46'0 0.0
2017-Dec-15 15:30N 35°29' E 139°46'0 0.0
2017-Dec-15 15:00N 35°29' E 139°46'0 0.0
2017-Dec-15 14:30N 35°29' E 139°46'0 0.0
2017-Dec-15 14:00N 35°29' E 139°46'0 0.0
2017-Dec-15 13:30N 35°29' E 139°46'0 0.1
2017-Dec-15 13:00N 35°29' E 139°46'0 0.0
2017-Dec-15 12:30N 35°29' E 139°46'0 0.0
2017-Dec-15 12:00N 35°29' E 139°46'0 0.0
2017-Dec-15 11:30N 35°29' E 139°46'0 0.0
2017-Dec-15 11:00N 35°29' E 139°46'0 0.0
2017-Dec-15 10:30N 35°29' E 139°46'0 0.0
2017-Dec-15 10:00N 35°29' E 139°46'0 0.0
2017-Dec-15 09:30N 35°29' E 139°46'0 0.0
2017-Dec-15 09:00N 35°29' E 139°46'0 0.0
2017-Dec-15 08:30N 35°29' E 139°46'0 0.1
2017-Dec-15 08:00N 35°29' E 139°46'0 0.1
2017-Dec-15 07:30N 35°29' E 139°46'0 0.0
2017-Dec-15 07:00N 35°29' E 139°46'0 0.0
2017-Dec-15 06:30N 35°29' E 139°46'510.5
2017-Dec-15 06:00N 35°24' E 139°46'611.4
2017-Dec-15 05:31N 35°18' E 139°45'611.4
2017-Dec-15 05:00N 35°13' E 139°47'611.7
2017-Dec-15 04:30N 35°07' E 139°45'611.5
2017-Dec-15 03:59N 35°02' E 139°40'1912.4
2017-Dec-15 02:27N 34°51' E 139°21'1812.2
2017-Dec-15 01:00N 34°40' E 139°05'711.6
2017-Dec-15 00:24N 34°36' E 138°58'7712.1
2017-Dec-14 18:04N 34°31' E 137°24'112.0
2017-Dec-14 17:59N 34°31' E 137°23'611.9
2017-Dec-14 17:30N 34°31' E 137°16'116 9.5
2017-Dec-14 05:18N 33°50' E 135°05'412.3
2017-Dec-14 04:57N 33°54' E 135°02'612.6
2017-Dec-14 04:30N 33°59' E 135°01'612.7
2017-Dec-14 04:00N 34°06' E 135°02'612.8
2017-Dec-14 03:30N 34°12' E 135°03'713.5
2017-Dec-14 03:00N 34°19' E 135°04'612.8
2017-Dec-14 02:30N 34°24' E 135°09'612.5
2017-Dec-14 02:00N 34°28' E 135°14'612.3
2017-Dec-14 01:30N 34°33' E 135°19'612.0
2017-Dec-14 01:00N 34°38' E 135°23'4 7.3
2017-Dec-14 00:30N 34°38' E 135°28'0 0.0
2017-Dec-14 00:00N 34°38' E 135°28'0 0.0
2017-Dec-13 23:30N 34°38' E 135°28'0 0.0
2017-Dec-13 23:00N 34°38' E 135°28'0 0.0
2017-Dec-13 22:30N 34°38' E 135°28'0 0.1
2017-Dec-13 22:00N 34°38' E 135°27'2 4.4
2017-Dec-13 21:30N 34°40' E 135°27'0 0.1
2017-Dec-13 21:00N 34°40' E 135°27'0 0.0
2017-Dec-13 20:30N 34°40' E 135°27'0 0.0
2017-Dec-13 20:00N 34°40' E 135°27'0 0.0
2017-Dec-13 19:30N 34°40' E 135°27'0 0.0
2017-Dec-13 19:00N 34°40' E 135°27'0 0.0
2017-Dec-13 18:30N 34°40' E 135°27'0 0.0
2017-Dec-13 18:00N 34°40' E 135°27'0 0.0
2017-Dec-13 17:30N 34°40' E 135°27'0 0.0
2017-Dec-13 17:00N 34°40' E 135°27'0 0.0
2017-Dec-13 16:30N 34°40' E 135°27'0 0.0
2017-Dec-13 16:00N 34°40' E 135°27'0 0.0
2017-Dec-13 15:30N 34°40' E 135°27'0 0.0
2017-Dec-13 15:00N 34°40' E 135°27'0 0.0
2017-Dec-13 14:30N 34°40' E 135°27'0 0.0
2017-Dec-13 14:00N 34°40' E 135°27'0 0.0
2017-Dec-13 13:30N 34°40' E 135°27'0 0.0
2017-Dec-13 13:00N 34°40' E 135°27'0 0.0
2017-Dec-13 12:30N 34°40' E 135°27'0 0.0
2017-Dec-13 12:00N 34°40' E 135°27'0 0.0
2017-Dec-13 11:30N 34°40' E 135°27'0 0.0
2017-Dec-13 11:00N 34°40' E 135°27'0 0.0
2017-Dec-13 10:30N 34°40' E 135°27'0 0.0
2017-Dec-13 10:00N 34°40' E 135°27'0 0.0
2017-Dec-13 09:30N 34°40' E 135°27'0 0.0
2017-Dec-13 09:00N 34°40' E 135°27'0 0.0
2017-Dec-13 08:30N 34°40' E 135°27'0 0.0
2017-Dec-13 08:00N 34°40' E 135°27'0 0.0
2017-Dec-13 07:30N 34°40' E 135°27'0 0.0
2017-Dec-13 07:00N 34°40' E 135°27'0 0.0
2017-Dec-13 06:30N 34°40' E 135°27'0 0.0
2017-Dec-13 06:00N 34°40' E 135°27'0 0.0
2017-Dec-13 05:30N 34°40' E 135°27'0 0.0
2017-Dec-13 05:00N 34°40' E 135°27'0 0.0
2017-Dec-13 04:30N 34°40' E 135°27'0 0.0
2017-Dec-13 04:00N 34°40' E 135°27'0 0.0
2017-Dec-13 03:30N 34°40' E 135°27'0 0.0
2017-Dec-13 03:00N 34°40' E 135°27'3 5.7
2017-Dec-13 02:30N 34°38' E 135°24'612.0
2017-Dec-13 02:00N 34°36' E 135°17'612.5
2017-Dec-13 01:30N 34°35' E 135°10'612.5
2017-Dec-13 01:00N 34°36' E 135°03'612.3
2017-Dec-13 00:30N 34°35' E 134°55'612.3
2017-Dec-13 00:00N 34°33' E 134°48'611.9
2017-Dec-12 23:30N 34°30' E 134°42'611.9
2017-Dec-12 23:00N 34°28' E 134°35'9510.8
2017-Dec-12 14:11N 34°04' E 132°43'211.6
2017-Dec-12 14:00N 34°03' E 132°41'611.3
2017-Dec-12 13:30N 33°60' E 132°35'710.7
2017-Dec-12 12:52N 33°55' E 132°29'811.0
2017-Dec-12 12:09N 33°50' E 132°22'211.2
2017-Dec-12 12:00N 33°50' E 132°20'611.6
2017-Dec-12 11:26N 33°50' E 132°12'711.4
2017-Dec-12 10:50N 33°46' E 132°05'811.6
2017-Dec-12 10:10N 33°45' E 131°56'212.1
2017-Dec-12 09:59N 33°45' E 131°53'612.2
2017-Dec-12 09:29N 33°47' E 131°46'612.3
2017-Dec-12 09:00N 33°48' E 131°39'612.0
2017-Dec-12 08:31N 33°49' E 131°32'611.9
2017-Dec-12 08:00N 33°51' E 131°25'611.8
2017-Dec-12 07:30N 33°52' E 131°18'611.4
2017-Dec-12 07:00N 33°53' E 131°11'611.7
2017-Dec-12 06:30N 33°56' E 131°05'510.9
2017-Dec-12 06:01N 33°58' E 130°59'510.8
2017-Dec-12 05:30N 33°54' E 130°55'2 4.4
2017-Dec-12 05:00N 33°56' E 130°54'0 0.0
2017-Dec-12 04:30N 33°56' E 130°54'0 0.0
2017-Dec-12 04:00N 33°56' E 130°54'0 0.0
2017-Dec-12 03:30N 33°56' E 130°54'0 0.0
2017-Dec-12 03:00N 33°56' E 130°54'0 0.0
2017-Dec-12 02:30N 33°56' E 130°54'0 0.0
2017-Dec-12 02:00N 33°56' E 130°54'0 0.0
2017-Dec-12 01:30N 33°56' E 130°54'0 0.0
2017-Dec-12 01:00N 33°56' E 130°54'0 0.0
2017-Dec-12 00:30N 33°56' E 130°54'0 0.0
2017-Dec-12 00:00N 33°56' E 130°54'0 0.0
2017-Dec-11 23:30N 33°56' E 130°54'1 2.3
2017-Dec-11 23:00N 33°55' E 130°54'3 4.9
2017-Dec-11 22:28N 33°57' E 130°56'0 0.0
2017-Dec-11 21:58N 33°57' E 130°56'0 0.0
2017-Dec-11 21:28N 33°57' E 130°56'0 0.0
2017-Dec-11 20:58N 33°57' E 130°56'0 0.0
2017-Dec-11 20:28N 33°57' E 130°56'0 0.0
2017-Dec-11 19:58N 33°57' E 130°56'0 0.0
2017-Dec-11 19:28N 33°57' E 130°56'0 0.0
2017-Dec-11 18:58N 33°57' E 130°56'0 0.0
2017-Dec-11 18:28N 33°57' E 130°56'0 0.0
2017-Dec-11 17:58N 33°57' E 130°56'0 0.0
2017-Dec-11 17:28N 33°57' E 130°56'0 0.0
2017-Dec-11 16:58N 33°57' E 130°56'0 0.0
2017-Dec-11 16:28N 33°57' E 130°56'0 0.0
2017-Dec-11 15:58N 33°57' E 130°56'0 0.0
2017-Dec-11 15:28N 33°57' E 130°56'0 0.0
2017-Dec-11 14:58N 33°57' E 130°56'0 0.0
2017-Dec-11 14:28N 33°57' E 130°56'0 0.0
2017-Dec-11 13:58N 33°57' E 130°56'0 0.0
2017-Dec-11 13:25N 33°57' E 130°56'0 0.0
2017-Dec-11 12:58N 33°57' E 130°56'0 0.0
2017-Dec-11 12:28N 33°57' E 130°56'0 0.0
2017-Dec-11 11:58N 33°57' E 130°56'0 0.0
2017-Dec-11 11:28N 33°57' E 130°56'0 0.0
2017-Dec-11 10:55N 33°57' E 130°56'0 0.0
2017-Dec-11 10:28N 33°57' E 130°56'0 0.0
2017-Dec-11 09:58N 33°57' E 130°56'0 0.0
2017-Dec-11 09:28N 33°57' E 130°56'0 0.0
2017-Dec-11 08:58N 33°57' E 130°56'0 0.0
2017-Dec-11 08:28N 33°57' E 130°56'0 0.0
2017-Dec-11 07:58N 33°57' E 130°56'0 0.0
2017-Dec-11 07:28N 33°57' E 130°56'0 0.0
2017-Dec-11 06:52N 33°57' E 130°56'0 0.0
2017-Dec-11 06:28N 33°57' E 130°56'0 0.0
2017-Dec-11 05:58N 33°57' E 130°56'0 0.0
2017-Dec-11 05:28N 33°57' E 130°56'0 0.0
2017-Dec-11 04:58N 33°57' E 130°56'0 0.0
2017-Dec-11 04:28N 33°57' E 130°56'0 0.0
2017-Dec-11 03:58N 33°57' E 130°56'0 0.0
2017-Dec-11 03:28N 33°57' E 130°56'0 0.0
2017-Dec-11 02:58N 33°57' E 130°56'0 0.0
2017-Dec-11 02:28N 33°57' E 130°56'0 0.0
2017-Dec-11 01:58N 33°57' E 130°56'0 0.0
2017-Dec-11 01:28N 33°57' E 130°56'0 0.0
2017-Dec-11 00:58N 33°57' E 130°56'0 0.0
2017-Dec-11 00:28N 33°57' E 130°56'0 0.0
2017-Dec-10 23:58N 33°57' E 130°56'0 0.0
2017-Dec-10 23:28N 33°57' E 130°56'0 0.0
2017-Dec-10 22:58N 33°57' E 130°56'0 0.0
2017-Dec-10 22:28N 33°57' E 130°56'0 0.0
2017-Dec-10 21:58N 33°57' E 130°56'0 0.0
2017-Dec-10 21:28N 33°57' E 130°56'0 0.0
2017-Dec-10 20:58N 33°57' E 130°56'0 0.0
2017-Dec-10 20:28N 33°57' E 130°56'0 0.0
2017-Dec-10 19:58N 33°57' E 130°56'0 0.0
2017-Dec-10 19:28N 33°57' E 130°56'0 0.0
2017-Dec-10 18:58N 33°57' E 130°56'0 0.0
2017-Dec-10 18:28N 33°57' E 130°56'0 0.0
2017-Dec-10 17:58N 33°57' E 130°56'0 0.0
2017-Dec-10 17:28N 33°57' E 130°56'0 0.0
2017-Dec-10 16:58N 33°57' E 130°56'0 0.0
2017-Dec-10 16:28N 33°57' E 130°56'0 0.0
2017-Dec-10 15:58N 33°57' E 130°56'0 0.0
2017-Dec-10 15:28N 33°57' E 130°56'0 0.0
2017-Dec-10 14:58N 33°57' E 130°56'0 0.0
2017-Dec-10 14:28N 33°57' E 130°56'0 0.0
2017-Dec-10 14:01N 33°57' E 130°56'0 0.0
2017-Dec-10 13:31N 33°57' E 130°56'0 0.0
2017-Dec-10 12:58N 33°57' E 130°56'0 0.0
2017-Dec-10 12:31N 33°57' E 130°56'0 0.0
2017-Dec-10 12:01N 33°57' E 130°56'0 0.0
2017-Dec-10 11:28N 33°57' E 130°56'0 0.0
2017-Dec-10 11:01N 33°57' E 130°56'0 0.0
2017-Dec-10 10:28N 33°57' E 130°56'0 0.0
2017-Dec-10 09:55N 33°57' E 130°56'0 0.0
2017-Dec-10 09:31N 33°57' E 130°56'0 0.0
2017-Dec-10 08:58N 33°57' E 130°56'0 0.0
2017-Dec-10 08:31N 33°57' E 130°56'0 0.0
2017-Dec-10 08:00N 33°57' E 130°56'0 0.0
2017-Dec-10 07:31N 33°57' E 130°56'0 0.0
2017-Dec-10 06:57N 33°57' E 130°56'0 0.0
2017-Dec-10 06:31N 33°57' E 130°56'0 0.0
2017-Dec-10 06:01N 33°57' E 130°56'0 0.0
2017-Dec-10 05:27N 33°57' E 130°56'0 0.0
2017-Dec-10 05:00N 33°57' E 130°56'0 0.0
2017-Dec-10 04:28N 33°57' E 130°56'0 0.0
2017-Dec-10 04:00N 33°57' E 130°56'0 0.0
2017-Dec-10 03:27N 33°57' E 130°56'0 0.0
2017-Dec-10 02:57N 33°57' E 130°56'0 0.0
2017-Dec-10 02:27N 33°57' E 130°56'0 0.0
2017-Dec-10 02:01N 33°57' E 130°56'0 0.0
2017-Dec-10 01:30N 33°57' E 130°56'2 3.1
2017-Dec-10 01:00N 33°58' E 130°58'3 5.1
2017-Dec-10 00:30N 33°59' E 131°00'3 6.3
2017-Dec-10 00:00N 33°58' E 131°04'0 0.0
2017-Dec-09 23:30N 33°58' E 131°04'0 0.3
2017-Dec-09 23:00N 33°58' E 131°04'510.7
2017-Dec-09 22:30N 33°54' E 131°09'611.5
2017-Dec-09 22:00N 33°52' E 131°16'611.6
2017-Dec-09 21:30N 33°51' E 131°22'611.7
2017-Dec-09 21:00N 33°50' E 131°29'611.8
2017-Dec-09 20:30N 33°49' E 131°36'611.7
2017-Dec-09 19:59N 33°48' E 131°43'911.6
2017-Dec-09 19:13N 33°46' E 131°54'611.5
2017-Dec-09 18:44N 33°46' E 132°01'311.5
2017-Dec-09 18:30N 33°46' E 132°04'712.0
2017-Dec-09 17:57N 33°50' E 132°11'511.8
2017-Dec-09 17:30N 33°50' E 132°17'911.0
2017-Dec-09 16:41N 33°53' E 132°27'910.7
2017-Dec-09 15:50N 33°60' E 132°35'411.1
2017-Dec-09 15:29N 34°02' E 132°39'10610.2
2017-Dec-09 05:01N 34°11' E 134°47'013.5
2017-Dec-09 05:00N 34°11' E 134°47'611.6
2017-Dec-09 04:30N 34°12' E 134°54'510.4
2017-Dec-09 04:00N 34°13' E 134°60'611.2
2017-Dec-09 03:30N 34°13' E 135°07'2 3.2
2017-Dec-09 03:00N 34°13' E 135°09'0 0.0
2017-Dec-09 02:30N 34°13' E 135°09'0 0.0
2017-Dec-09 02:01N 34°13' E 135°09'0 0.0
2017-Dec-09 01:30N 34°13' E 135°09'0 0.0
2017-Dec-09 01:01N 34°13' E 135°09'0 0.0
2017-Dec-09 00:30N 34°13' E 135°09'0 0.0
2017-Dec-09 00:00N 34°13' E 135°09'0 0.0
2017-Dec-08 23:30N 34°13' E 135°09'0 0.0
2017-Dec-08 23:00N 34°13' E 135°09'1 2.6
2017-Dec-08 22:31N 34°12' E 135°07'0 0.0
2017-Dec-08 22:00N 34°12' E 135°07'0 0.1
2017-Dec-08 21:27N 34°12' E 135°07'0 0.0
2017-Dec-08 21:00N 34°12' E 135°07'0 0.0
2017-Dec-08 20:30N 34°12' E 135°07'3 6.0
2017-Dec-08 20:00N 34°12' E 135°04'611.5
2017-Dec-08 19:30N 34°12' E 134°57'611.4
2017-Dec-08 19:00N 34°11' E 134°50'611.7
2017-Dec-08 18:30N 34°11' E 134°43'713.3
2017-Dec-08 18:00N 34°16' E 134°38'612.0
2017-Dec-08 17:30N 34°18' E 134°31'612.3
2017-Dec-08 17:00N 34°20' E 134°24'85 9.8
2017-Dec-08 08:20N 34°04' E 132°44'411.0
2017-Dec-08 08:00N 34°02' E 132°40'810.4
2017-Dec-08 07:13N 33°57' E 132°32'310.2
2017-Dec-08 06:55N 33°55' E 132°29'710.9
2017-Dec-08 06:15N 33°50' E 132°23'311.3
2017-Dec-08 05:57N 33°50' E 132°19'1211.5
2017-Dec-08 04:52N 33°46' E 132°04'1711.3
2017-Dec-08 03:22N 33°56' E 131°48'411.6
2017-Dec-08 03:00N 33°59' E 131°45'4 1.8
2017-Dec-08 00:40N 34°03' E 131°46'1 6.2
2017-Dec-08 00:30N 34°03' E 131°45'1 2.4
2017-Dec-08 00:00N 34°03' E 131°44'0 0.0
2017-Dec-07 23:30N 34°03' E 131°44'3 6.0
2017-Dec-07 23:00N 34°03' E 131°47'0 0.0
2017-Dec-07 07:52N 34°03' E 131°48'1 2.4
2017-Dec-07 07:28N 34°02' E 131°47'510.3
2017-Dec-07 07:00N 33°57' E 131°46'1611.7
2017-Dec-07 05:39N 33°52' E 132°04'211.8
2017-Dec-07 05:29N 33°51' E 132°06'4 5.2
2017-Dec-07 04:48N 33°54' E 132°09'510.9
2017-Dec-07 04:19N 33°58' E 132°12'412.9
2017-Dec-07 03:59N 34°01' E 132°16'1312.3
2017-Dec-07 02:54N 34°08' E 132°29'4 9.4
2017-Dec-07 02:30N 34°12' E 132°29'0 0.1
2017-Dec-07 01:59N 34°12' E 132°29'0 0.0
2017-Dec-07 01:28N 34°12' E 132°29'0 0.0
2017-Dec-07 01:00N 34°12' E 132°29'0 0.0
2017-Dec-07 00:30N 34°12' E 132°29'0 0.3
2017-Dec-07 00:00N 34°12' E 132°29'0 0.3
2017-Dec-06 23:30N 34°12' E 132°29'2 4.8
2017-Dec-06 23:00N 34°09' E 132°30'4 8.6
2017-Dec-06 22:29N 34°07' E 132°25'510.1
2017-Dec-06 21:59N 34°03' E 132°20'  

Dump ship's entire track history